Řízení letového provozu České republiky
Letiste: LKTB Aktualizace: 20.01.2019 10:31:06  UTC
 METAR LKTB 20.01. 10:30 ...
METAR LKTB 201030Z 08006KT 9999 BKN034 M00/M05 Q1016 NOSIG RMK REG QNH 1010=
 TAF LKTB 20.01. 05:00 ...
TAF LKTB 200500Z 2006/2112 07006KT 9999 BKN045      BECMG 2021/2023 33002KT CAVOK=